createdAt,value
2023-04-07T00:00:35.067Z,96340.63
2023-04-07T00:03:07.367Z,96339.81
2023-04-07T00:05:36.005Z,96335.00
2023-04-07T00:08:04.402Z,96335.69
2023-04-07T00:10:32.782Z,96334.06
2023-04-07T00:13:02.753Z,96341.28
2023-04-07T00:15:31.325Z,96342.59
2023-04-07T00:17:59.851Z,96338.44
2023-04-07T00:20:28.296Z,96341.06
2023-04-07T00:22:57.809Z,96339.28
2023-04-07T00:25:26.255Z,96339.03
2023-04-07T00:27:54.598Z,96342.16
2023-04-07T00:30:24.447Z,96337.25
2023-04-07T00:32:59.499Z,96330.47
2023-04-07T00:35:28.027Z,96335.97
2023-04-07T00:37:57.178Z,96336.59
2023-04-07T00:40:26.068Z,96328.28
2023-04-07T00:42:54.646Z,96336.22
2023-04-07T00:45:24.327Z,96329.56
2023-04-07T00:47:52.913Z,96330.28
2023-04-07T00:50:24.541Z,96324.53
2023-04-07T00:52:52.927Z,96331.38
2023-04-07T00:55:22.714Z,96329.34
2023-04-07T00:57:51.813Z,96324.09
2023-04-07T01:00:20.465Z,96323.78
2023-04-07T01:03:00.548Z,96318.22
2023-04-07T01:05:37.819Z,96321.28
2023-04-07T01:08:16.752Z,96322.44
2023-04-07T01:10:52.670Z,96318.88
2023-04-07T01:13:26.807Z,96315.03
2023-04-07T01:15:59.366Z,96315.56
2023-04-07T01:18:32.902Z,96306.91
2023-04-07T01:21:05.912Z,96307.59
2023-04-07T01:23:48.379Z,96310.78
2023-04-07T01:26:22.902Z,96302.34
2023-04-07T01:29:08.652Z,96303.72
2023-04-07T01:31:40.955Z,96308.53
2023-04-07T01:34:12.953Z,96304.81
2023-04-07T01:36:42.451Z,96301.72
2023-04-07T01:39:12.593Z,96302.31
2023-04-07T01:41:42.291Z,96310.63
2023-04-07T01:44:11.722Z,96302.34
2023-04-07T01:46:41.634Z,96291.50
2023-04-07T01:49:10.162Z,96289.97
2023-04-07T01:51:39.128Z,96297.69
2023-04-07T01:54:08.989Z,96298.81
2023-04-07T01:56:37.517Z,96297.13
2023-04-07T01:59:06.065Z,96296.88
2023-04-07T02:01:34.594Z,96295.66
2023-04-07T02:04:10.567Z,96291.81
2023-04-07T02:06:44.526Z,96294.31
2023-04-07T02:09:21.095Z,96295.66
2023-04-07T02:11:52.267Z,96293.44
2023-04-07T02:14:24.481Z,96289.84
2023-04-07T02:16:54.904Z,96291.34
2023-04-07T02:19:25.154Z,96285.31
2023-04-07T02:21:54.845Z,96284.47
2023-04-07T02:24:23.509Z,96282.13
2023-04-07T02:26:51.947Z,96276.19
2023-04-07T02:29:21.023Z,96278.91
2023-04-07T02:31:49.642Z,96270.13
2023-04-07T02:34:18.021Z,96270.13
2023-04-07T02:36:47.944Z,96273.13
2023-04-07T02:39:16.364Z,96269.63
2023-04-07T02:41:44.885Z,96271.94
2023-04-07T02:44:16.316Z,96268.63
2023-04-07T02:46:44.693Z,96268.63
2023-04-07T02:49:13.060Z,96268.28
2023-04-07T02:51:41.504Z,96263.06
2023-04-07T02:54:11.296Z,96264.97
2023-04-07T02:56:39.666Z,96260.00
2023-04-07T02:59:08.091Z,96260.97
2023-04-07T03:01:36.917Z,96263.84
2023-04-07T03:04:05.817Z,96259.16
2023-04-07T03:06:34.674Z,96256.19
2023-04-07T03:09:03.104Z,96249.47
2023-04-07T03:11:33.182Z,96253.50
2023-04-07T03:14:01.560Z,96245.19
2023-04-07T03:16:30.149Z,96246.16
2023-04-07T03:18:59.825Z,96246.41
2023-04-07T03:21:28.986Z,96235.50
2023-04-07T03:23:57.439Z,96238.22
2023-04-07T03:26:26.132Z,96238.50
2023-04-07T03:28:55.857Z,96229.84
2023-04-07T03:31:24.456Z,96234.66
2023-04-07T03:33:53.090Z,96232.63
2023-04-07T03:36:21.571Z,96234.84
2023-04-07T03:38:50.449Z,96239.94
2023-04-07T03:41:18.863Z,96236.00
2023-04-07T03:43:47.161Z,96228.72
2023-04-07T03:46:17.150Z,96242.38
2023-04-07T03:48:45.506Z,96240.31
2023-04-07T03:51:14.272Z,96245.28
2023-04-07T03:53:42.692Z,96231.25
2023-04-07T03:56:11.267Z,96233.88
2023-04-07T03:58:42.633Z,96230.16
2023-04-07T04:01:11.401Z,96227.41
2023-04-07T04:03:41.239Z,96227.13
2023-04-07T04:06:09.708Z,96235.81
2023-04-07T04:08:38.103Z,96238.28
2023-04-07T04:11:06.615Z,96226.88
2023-04-07T04:13:35.005Z,96230.19
2023-04-07T04:16:03.441Z,96228.25
2023-04-07T04:18:31.757Z,96224.38
2023-04-07T04:21:02.187Z,96225.91
2023-04-07T04:23:30.526Z,96219.47
2023-04-07T04:26:04.012Z,96223.59
2023-04-07T04:28:32.629Z,96222.50
2023-04-07T04:31:02.047Z,96226.66
2023-04-07T04:33:30.756Z,96222.38
2023-04-07T04:36:00.384Z,96222.13
2023-04-07T04:38:30.130Z,96230.78
2023-04-07T04:41:03.096Z,96226.94
2023-04-07T04:43:31.946Z,96232.63
2023-04-07T04:46:01.663Z,96222.41
2023-04-07T04:48:30.006Z,96222.84
2023-04-07T04:50:58.440Z,96225.88
2023-04-07T04:53:26.898Z,96224.81
2023-04-07T04:55:56.589Z,96235.00
2023-04-07T04:58:28.168Z,96232.25
2023-04-07T05:00:58.265Z,96226.19
2023-04-07T05:03:27.182Z,96233.38
2023-04-07T05:05:55.899Z,96225.75
2023-04-07T05:08:24.350Z,96218.59
2023-04-07T05:10:52.761Z,96219.28
2023-04-07T05:13:22.789Z,96223.56
2023-04-07T05:15:51.261Z,96222.75
2023-04-07T05:18:19.665Z,96224.25
2023-04-07T05:20:50.177Z,96221.34
2023-04-07T05:23:18.553Z,96226.47
2023-04-07T05:25:46.905Z,96230.63
2023-04-07T05:28:15.336Z,96234.91
2023-04-07T05:30:45.379Z,96231.16
2023-04-07T05:33:13.828Z,96226.47
2023-04-07T05:35:42.320Z,96223.84
2023-04-07T05:38:10.683Z,96220.16
2023-04-07T05:40:39.070Z,96219.31
2023-04-07T05:43:07.612Z,96226.09
2023-04-07T05:45:37.732Z,96221.53
2023-04-07T05:48:07.738Z,96228.28
2023-04-07T05:50:36.370Z,96223.75
2023-04-07T05:53:04.721Z,96235.03
2023-04-07T05:55:33.201Z,96228.97
2023-04-07T05:58:03.683Z,96223.75
2023-04-07T06:00:32.286Z,96227.47
2023-04-07T06:03:02.316Z,96231.34
2023-04-07T06:05:32.218Z,96229.56
2023-04-07T06:08:00.619Z,96219.88
2023-04-07T06:10:29.953Z,96223.47
2023-04-07T06:12:58.271Z,96224.56
2023-04-07T06:15:26.642Z,96218.81
2023-04-07T06:17:55.804Z,96221.13
2023-04-07T06:20:24.352Z,96225.13
2023-04-07T06:22:54.603Z,96216.56
2023-04-07T06:25:23.022Z,96224.44
2023-04-07T06:27:51.766Z,96222.81
2023-04-07T06:30:20.167Z,96223.63
2023-04-07T06:32:52.450Z,96220.00
2023-04-07T06:35:21.025Z,96217.94
2023-04-07T06:37:49.737Z,96221.94
2023-04-07T06:40:19.804Z,96216.88
2023-04-07T06:42:48.208Z,96223.75
2023-04-07T06:45:16.830Z,96220.88
2023-04-07T06:47:45.431Z,96210.25
2023-04-07T06:50:13.887Z,96210.38
2023-04-07T06:52:42.284Z,96213.81
2023-04-07T06:55:11.559Z,96211.19
2023-04-07T06:57:41.261Z,96208.56
2023-04-07T07:00:10.908Z,96209.69
2023-04-07T07:02:39.492Z,96211.31
2023-04-07T07:05:08.593Z,96206.94
2023-04-07T07:07:37.011Z,96213.00
2023-04-07T07:10:11.569Z,96205.94
2023-04-07T07:12:41.385Z,96206.94
2023-04-07T07:15:10.534Z,96200.84
2023-04-07T07:17:39.007Z,96200.13
2023-04-07T07:20:08.569Z,96204.81
2023-04-07T07:22:37.031Z,96200.25
2023-04-07T07:25:06.348Z,96207.72
2023-04-07T07:27:35.036Z,96202.72
2023-04-07T07:30:08.803Z,96200.22
2023-04-07T07:32:37.193Z,96198.84
2023-04-07T07:35:06.166Z,96202.41
2023-04-07T07:37:37.640Z,96187.75
2023-04-07T07:40:06.667Z,96185.09
2023-04-07T07:42:35.176Z,96188.41
2023-04-07T07:45:05.489Z,96189.47
2023-04-07T07:47:35.566Z,96187.09
2023-04-07T07:50:05.689Z,96193.56
2023-04-07T07:52:34.101Z,96192.31
2023-04-07T07:55:04.460Z,96186.47
2023-04-07T07:57:33.089Z,96181.75
2023-04-07T08:00:01.498Z,96184.09
2023-04-07T08:02:34.025Z,96173.81
2023-04-07T08:05:04.063Z,96178.78
2023-04-07T08:07:32.613Z,96188.03
2023-04-07T08:10:01.016Z,96185.41
2023-04-07T08:12:29.430Z,96183.72
2023-04-07T08:14:57.825Z,96178.47
2023-04-07T08:17:26.326Z,96184.13
2023-04-07T08:19:56.100Z,96187.13
2023-04-07T08:22:26.635Z,96180.75
2023-04-07T08:24:55.040Z,96189.00
2023-04-07T08:27:23.408Z,96189.41
2023-04-07T08:30:00.445Z,96190.06
2023-04-07T08:32:36.722Z,96181.72
2023-04-07T08:35:12.975Z,96175.06
2023-04-07T08:37:51.057Z,96184.16
2023-04-07T08:40:19.558Z,96176.34
2023-04-07T08:42:49.569Z,96177.09
2023-04-07T08:45:19.078Z,96176.88
2023-04-07T08:47:48.969Z,96176.09
2023-04-07T08:50:20.409Z,96170.06
2023-04-07T08:52:52.695Z,96171.47
2023-04-07T08:55:21.616Z,96165.16
2023-04-07T08:57:50.605Z,96170.66
2023-04-07T09:00:19.702Z,96158.88
2023-04-07T09:02:49.478Z,96160.91
2023-04-07T09:05:19.406Z,96156.03
2023-04-07T09:07:48.013Z,96154.75
2023-04-07T09:10:17.513Z,96162.53
2023-04-07T09:12:46.131Z,96151.22
2023-04-07T09:15:14.533Z,96153.88
2023-04-07T09:17:43.200Z,96153.09
2023-04-07T09:20:12.425Z,96152.47
2023-04-07T09:22:45.772Z,96158.41
2023-04-07T09:25:16.372Z,96153.94
2023-04-07T09:28:01.060Z,96151.00
2023-04-07T09:30:30.403Z,96146.56
2023-04-07T09:32:59.817Z,96146.38
2023-04-07T09:35:29.817Z,96141.44
2023-04-07T09:38:08.742Z,96149.69
2023-04-07T09:40:37.911Z,96146.06
2023-04-07T09:43:07.270Z,96141.13
2023-04-07T09:45:37.387Z,96140.75
2023-04-07T09:48:09.225Z,96135.63
2023-04-07T09:50:41.063Z,96135.13
2023-04-07T09:53:11.023Z,96133.63
2023-04-07T09:55:41.721Z,96133.47
2023-04-07T09:58:13.886Z,96132.13
2023-04-07T10:00:42.892Z,96131.78
2023-04-07T10:03:12.206Z,96130.75
2023-04-07T10:05:41.402Z,96120.16
2023-04-07T10:08:11.395Z,96125.09
2023-04-07T10:10:43.072Z,96117.63
2023-04-07T10:13:12.000Z,96118.75
2023-04-07T10:15:41.048Z,96116.47
2023-04-07T10:18:10.210Z,96118.41
2023-04-07T10:20:41.606Z,96109.78
2023-04-07T10:23:17.677Z,96107.47
2023-04-07T10:25:48.887Z,96110.03
2023-04-07T10:28:19.448Z,96103.72
2023-04-07T10:30:49.868Z,96100.03
2023-04-07T10:33:18.997Z,96105.25
2023-04-07T10:36:06.411Z,96104.88
2023-04-07T10:38:36.788Z,96101.34
2023-04-07T10:41:36.551Z,96103.97
2023-04-07T10:44:08.153Z,96102.72
2023-04-07T10:47:07.193Z,96098.00
2023-04-07T10:49:36.912Z,96099.03
2023-04-07T10:52:25.060Z,96094.38
2023-04-07T10:55:32.908Z,96086.28
2023-04-07T10:58:22.536Z,96083.53
2023-04-07T11:01:30.492Z,96082.91
2023-04-07T11:04:02.107Z,96088.31
2023-04-07T11:06:31.655Z,96079.34
2023-04-07T11:09:00.151Z,96081.00
2023-04-07T11:11:42.535Z,96069.38
2023-04-07T11:14:10.994Z,96071.31
2023-04-07T11:16:43.914Z,96081.19
2023-04-07T11:19:12.430Z,96073.66
2023-04-07T11:21:40.875Z,96069.50
2023-04-07T11:24:09.512Z,96079.72
2023-04-07T11:26:41.580Z,96074.72
2023-04-07T11:29:11.849Z,96072.84
2023-04-07T11:31:40.435Z,96069.41
2023-04-07T11:34:09.134Z,96076.81
2023-04-07T11:36:41.600Z,96071.44
2023-04-07T11:39:21.389Z,96071.94
2023-04-07T11:41:52.109Z,96067.94
2023-04-07T11:44:20.871Z,96060.66
2023-04-07T11:46:56.029Z,96056.84
2023-04-07T11:49:26.023Z,96054.66
2023-04-07T11:52:00.351Z,96048.19
2023-04-07T11:54:28.827Z,96050.88
2023-04-07T11:56:58.607Z,96049.03
2023-04-07T11:59:27.400Z,96052.66
2023-04-07T12:01:57.635Z,96044.06
2023-04-07T12:04:26.715Z,96041.41
2023-04-07T12:06:55.274Z,96050.59
2023-04-07T12:09:32.199Z,96044.19
2023-04-07T12:12:02.054Z,96045.25
2023-04-07T12:14:30.458Z,96037.53
2023-04-07T12:16:59.697Z,96032.09
2023-04-07T12:19:28.992Z,96024.84
2023-04-07T12:21:58.230Z,96031.44
2023-04-07T12:24:27.323Z,96034.56
2023-04-07T12:26:56.286Z,96034.84
2023-04-07T12:29:26.160Z,96027.31
2023-04-07T12:31:54.563Z,96028.94
2023-04-07T12:34:23.071Z,96029.13
2023-04-07T12:36:51.668Z,96025.22
2023-04-07T12:39:20.305Z,96027.69
2023-04-07T12:41:53.151Z,96024.41
2023-04-07T12:44:21.730Z,96027.94
2023-04-07T12:46:51.617Z,96018.69
2023-04-07T12:49:20.040Z,96028.75
2023-04-07T12:51:48.477Z,96020.34
2023-04-07T12:54:16.833Z,96027.31
2023-04-07T12:56:46.063Z,96028.53
2023-04-07T12:59:14.805Z,96017.88
2023-04-07T13:01:43.265Z,96011.31
2023-04-07T13:04:13.272Z,96013.94
2023-04-07T13:06:41.746Z,96013.88
2023-04-07T13:09:10.451Z,96015.09
2023-04-07T13:11:38.860Z,96007.97
2023-04-07T13:14:08.464Z,96013.75
2023-04-07T13:16:37.001Z,96018.03
2023-04-07T13:19:07.031Z,96010.03
2023-04-07T13:21:46.126Z,96005.53
2023-04-07T13:24:15.042Z,96010.66
2023-04-07T13:26:43.449Z,96010.88
2023-04-07T13:29:11.844Z,96011.31
2023-04-07T13:31:40.449Z,96003.31
2023-04-07T13:34:09.503Z,96001.06
2023-04-07T13:36:39.260Z,96006.81
2023-04-07T13:39:09.146Z,96000.47
2023-04-07T13:41:37.639Z,96006.84
2023-04-07T13:44:08.781Z,96000.06
2023-04-07T13:46:37.345Z,95999.22
2023-04-07T13:49:07.569Z,95996.94
2023-04-07T13:51:36.000Z,96001.25
2023-04-07T13:54:05.812Z,96001.22
2023-04-07T13:56:35.561Z,96016.75
2023-04-07T13:59:04.017Z,96012.44
2023-04-07T14:01:33.597Z,96002.38
2023-04-07T14:04:02.575Z,96000.53
2023-04-07T14:06:31.693Z,96005.03
2023-04-07T14:09:00.401Z,96001.72
2023-04-07T14:11:30.136Z,96008.03
2023-04-07T14:13:58.569Z,96010.69
2023-04-07T14:16:27.558Z,96015.13
2023-04-07T14:18:56.268Z,96014.31
2023-04-07T14:21:24.761Z,96014.25
2023-04-07T14:23:53.504Z,96010.53
2023-04-07T14:26:22.478Z,96007.47
2023-04-07T14:28:52.283Z,96018.69
2023-04-07T14:31:21.070Z,96017.25
2023-04-07T14:33:51.011Z,96018.25
2023-04-07T14:36:19.773Z,96009.66
2023-04-07T14:38:50.570Z,96019.47
2023-04-07T14:41:20.196Z,96019.84
2023-04-07T14:43:53.643Z,96019.03
2023-04-07T14:46:23.940Z,96020.63
2023-04-07T14:48:53.436Z,96026.75
2023-04-07T14:51:22.689Z,96024.47
2023-04-07T14:53:56.152Z,96027.53
2023-04-07T14:56:24.792Z,96022.59
2023-04-07T14:58:53.290Z,96032.78
2023-04-07T15:01:23.310Z,96043.63
2023-04-07T15:03:53.005Z,96030.13
2023-04-07T15:06:21.776Z,96032.78
2023-04-07T15:08:50.200Z,96033.63
2023-04-07T15:11:18.856Z,96038.09
2023-04-07T15:13:47.604Z,96029.13
2023-04-07T15:16:16.996Z,96037.28
2023-04-07T15:18:47.366Z,96036.00
2023-04-07T15:21:16.559Z,96033.19
2023-04-07T15:23:45.078Z,96042.97
2023-04-07T15:26:13.757Z,96046.63
2023-04-07T15:28:42.171Z,96036.00
2023-04-07T15:31:10.673Z,96039.44
2023-04-07T15:33:40.397Z,96045.31
2023-04-07T15:36:11.095Z,96049.94
2023-04-07T15:38:40.405Z,96049.69
2023-04-07T15:41:10.924Z,96053.56
2023-04-07T15:43:39.265Z,96051.09
2023-04-07T15:46:09.058Z,96055.13
2023-04-07T15:48:37.438Z,96046.91
2023-04-07T15:51:06.008Z,96058.28
2023-04-07T15:53:36.209Z,96056.41
2023-04-07T15:56:04.713Z,96067.59
2023-04-07T15:58:33.321Z,96068.16
2023-04-07T16:01:01.941Z,96067.66
2023-04-07T16:03:32.111Z,96066.91
2023-04-07T16:06:00.596Z,96068.69
2023-04-07T16:08:29.080Z,96075.94
2023-04-07T16:10:58.836Z,96077.72
2023-04-07T16:13:27.552Z,96075.34
2023-04-07T16:15:57.362Z,96083.19
2023-04-07T16:18:25.919Z,96083.13
2023-04-07T16:20:54.321Z,96083.03
2023-04-07T16:23:23.048Z,96080.13
2023-04-07T16:25:51.551Z,96082.09
2023-04-07T16:28:21.297Z,96087.41
2023-04-07T16:30:49.921Z,96084.28
2023-04-07T16:33:18.310Z,96083.44
2023-04-07T16:35:46.889Z,96092.78
2023-04-07T16:38:15.515Z,96092.13
2023-04-07T16:41:00.614Z,96090.88
2023-04-07T16:43:30.820Z,96091.03
2023-04-07T16:46:00.271Z,96095.06
2023-04-07T16:48:37.790Z,96097.25
2023-04-07T16:51:07.287Z,96095.78
2023-04-07T16:53:35.692Z,96114.50
2023-04-07T16:56:04.076Z,96100.63
2023-04-07T16:58:33.927Z,96116.22
2023-04-07T17:01:02.350Z,96110.66
2023-04-07T17:03:32.163Z,96127.09
2023-04-07T17:06:05.291Z,96127.63
2023-04-07T17:08:33.909Z,96118.75
2023-04-07T17:11:02.544Z,96119.84
2023-04-07T17:13:30.985Z,96124.84
2023-04-07T17:16:02.366Z,96129.50
2023-04-07T17:18:30.832Z,96132.69
2023-04-07T17:20:59.229Z,96132.53
2023-04-07T17:23:28.381Z,96140.56
2023-04-07T17:25:57.125Z,96142.16
2023-04-07T17:28:27.341Z,96146.38
2023-04-07T17:30:55.933Z,96144.44
2023-04-07T17:33:26.126Z,96148.44
2023-04-07T17:35:54.515Z,96148.13
2023-04-07T17:38:23.064Z,96155.06
2023-04-07T17:40:58.433Z,96157.53
2023-04-07T17:43:27.207Z,96159.72
2023-04-07T17:45:55.732Z,96157.75
2023-04-07T17:48:28.213Z,96168.84
2023-04-07T17:50:57.419Z,96165.53
2023-04-07T17:53:25.881Z,96165.56
2023-04-07T17:55:54.488Z,96174.84
2023-04-07T17:58:22.843Z,96177.50
2023-04-07T18:00:51.513Z,96179.66
2023-04-07T18:03:20.297Z,96182.31
2023-04-07T18:05:50.288Z,96188.25
2023-04-07T18:08:19.558Z,96189.09
2023-04-07T18:10:47.989Z,96187.47
2023-04-07T18:13:16.381Z,96196.19
2023-04-07T18:15:44.827Z,96194.72
2023-04-07T18:18:13.544Z,96201.19
2023-04-07T18:20:42.251Z,96207.13
2023-04-07T18:23:13.899Z,96203.50
2023-04-07T18:25:42.507Z,96209.44
2023-04-07T18:28:11.866Z,96208.13
2023-04-07T18:30:40.264Z,96212.25
2023-04-07T18:33:08.722Z,96211.13
2023-04-07T18:35:37.670Z,96221.19
2023-04-07T18:38:06.458Z,96216.53
2023-04-07T18:40:36.427Z,96221.16
2023-04-07T18:43:04.875Z,96227.25
2023-04-07T18:45:36.774Z,96221.50
2023-04-07T18:48:05.675Z,96215.88
2023-04-07T18:50:34.264Z,96216.69
2023-04-07T18:53:03.021Z,96221.47
2023-04-07T18:55:31.577Z,96224.09
2023-04-07T18:58:01.274Z,96225.84
2023-04-07T19:00:29.738Z,96233.44
2023-04-07T19:02:58.548Z,96233.44
2023-04-07T19:05:27.142Z,96228.16
2023-04-07T19:08:01.539Z,96232.13
2023-04-07T19:10:29.961Z,96235.22
2023-04-07T19:12:58.306Z,96232.41
2023-04-07T19:15:28.521Z,96232.72
2023-04-07T19:17:57.023Z,96239.81
2023-04-07T19:20:25.567Z,96233.19
2023-04-07T19:22:54.025Z,96235.03
2023-04-07T19:25:22.763Z,96245.38
2023-04-07T19:27:54.413Z,96241.94
2023-04-07T19:30:22.963Z,96242.44
2023-04-07T19:32:52.943Z,96249.72
2023-04-07T19:35:21.649Z,96250.22
2023-04-07T19:37:50.240Z,96252.38
2023-04-07T19:40:18.762Z,96251.25
2023-04-07T19:42:47.581Z,96258.00
2023-04-07T19:45:16.296Z,96262.97
2023-04-07T19:47:44.858Z,96266.94
2023-04-07T19:50:15.397Z,96265.13
2023-04-07T19:52:47.351Z,96272.72
2023-04-07T19:55:16.843Z,96271.25
2023-04-07T19:57:45.293Z,96276.22
2023-04-07T20:00:16.117Z,96273.06
2023-04-07T20:02:44.666Z,96278.19
2023-04-07T20:05:14.631Z,96276.22
2023-04-07T20:07:43.077Z,96279.72
2023-04-07T20:10:12.812Z,96286.47
2023-04-07T20:12:41.173Z,96277.38
2023-04-07T20:15:13.332Z,96282.13
2023-04-07T20:17:51.884Z,96278.16
2023-04-07T20:20:22.349Z,96270.19
2023-04-07T20:22:50.981Z,96281.25
2023-04-07T20:25:19.422Z,96271.19
2023-04-07T20:27:49.996Z,96279.59
2023-04-07T20:30:18.570Z,96276.25
2023-04-07T20:32:48.833Z,96282.31
2023-04-07T20:35:17.586Z,96280.16
2023-04-07T20:37:47.338Z,96281.47
2023-04-07T20:40:15.692Z,96280.13
2023-04-07T20:42:44.235Z,96282.41
2023-04-07T20:45:15.338Z,96278.28
2023-04-07T20:47:44.024Z,96284.47
2023-04-07T20:50:12.501Z,96280.22
2023-04-07T20:52:43.478Z,96282.00
2023-04-07T20:55:16.150Z,96289.25
2023-04-07T20:57:44.570Z,96280.22
2023-04-07T21:00:18.713Z,96278.53
2023-04-07T21:02:48.687Z,96281.34
2023-04-07T21:05:17.236Z,96290.09
2023-04-07T21:07:45.586Z,96292.06
2023-04-07T21:10:16.984Z,96298.28
2023-04-07T21:12:45.506Z,96296.72
2023-04-07T21:15:15.102Z,96296.75
2023-04-07T21:17:43.629Z,96301.56
2023-04-07T21:20:13.894Z,96294.69
2023-04-07T21:22:42.550Z,96293.38
2023-04-07T21:25:12.046Z,96298.34
2023-04-07T21:27:42.106Z,96291.25
2023-04-07T21:30:14.188Z,96296.03
2023-04-07T21:32:46.445Z,96289.66
2023-04-07T21:35:14.825Z,96297.41
2023-04-07T21:37:43.177Z,96293.78
2023-04-07T21:40:13.589Z,96294.78
2023-04-07T21:42:43.723Z,96287.81
2023-04-07T21:45:14.123Z,96298.38
2023-04-07T21:47:50.004Z,96287.47
2023-04-07T21:50:18.845Z,96299.47
2023-04-07T21:52:50.647Z,96297.00
2023-04-07T21:55:21.346Z,96290.59
2023-04-07T21:57:51.402Z,96293.75
2023-04-07T22:00:20.355Z,96292.75
2023-04-07T22:02:49.612Z,96297.03
2023-04-07T22:05:18.513Z,96299.16
2023-04-07T22:07:48.175Z,96298.66
2023-04-07T22:10:20.005Z,96291.75
2023-04-07T22:12:48.331Z,96299.66
2023-04-07T22:15:18.513Z,96285.78
2023-04-07T22:17:53.379Z,96291.22
2023-04-07T22:20:21.747Z,96293.03
2023-04-07T22:22:51.339Z,96295.34
2023-04-07T22:25:19.825Z,96295.34
2023-04-07T22:27:48.128Z,96307.22
2023-04-07T22:30:19.894Z,96308.56
2023-04-07T22:32:48.866Z,96305.63
2023-04-07T22:35:17.515Z,96305.47
2023-04-07T22:37:46.328Z,96309.06
2023-04-07T22:40:16.611Z,96314.50
2023-04-07T22:42:44.966Z,96318.16
2023-04-07T22:45:15.344Z,96310.53
2023-04-07T22:47:45.096Z,96313.03
2023-04-07T22:50:14.969Z,96312.19
2023-04-07T22:52:43.319Z,96312.19
2023-04-07T22:55:11.681Z,96317.78
2023-04-07T22:57:45.928Z,96306.56
2023-04-07T23:00:16.482Z,96316.97
2023-04-07T23:02:46.689Z,96317.13
2023-04-07T23:05:16.568Z,96316.16
2023-04-07T23:07:44.954Z,96320.56
2023-04-07T23:10:15.752Z,96317.94
2023-04-07T23:12:44.148Z,96330.31
2023-04-07T23:15:12.933Z,96327.16
2023-04-07T23:17:52.691Z,96328.28
2023-04-07T23:20:21.203Z,96333.88
2023-04-07T23:22:49.537Z,96334.06
2023-04-07T23:25:17.943Z,96343.59
2023-04-07T23:27:46.346Z,96332.09
2023-04-07T23:30:14.710Z,96327.94
2023-04-07T23:32:43.558Z,96336.03
2023-04-07T23:35:16.942Z,96333.81
2023-04-07T23:37:45.264Z,96334.16
2023-04-07T23:40:19.325Z,96332.50
2023-04-07T23:42:47.719Z,96337.91
2023-04-07T23:45:18.728Z,96331.81
2023-04-07T23:47:48.885Z,96333.50
2023-04-07T23:50:18.922Z,96327.53
2023-04-07T23:52:47.285Z,96337.22
2023-04-07T23:55:17.148Z,96327.66
2023-04-07T23:57:47.911Z,96339.50
